Estación Meteorológica Peña el Pijo (Robertgarden) [ 01/30/23 14:25:24 CET ]

Fecha Hora Presion(HPa) Temp (°C) Humedad % Rocio (°C) Viento ( m/s) Direccion Lluvia 1Hora(mm) Lluvia 24H(mm) LLuvia Total(mm)
2012-Jul-28 01:01:13 1010.600 15.1 90 13.5       8.28 176.12
2012-Jul-28 02:01:16 1010.700 13.9 90 12.3       8.28 176.12
2012-Jul-28 03:05:21 1010.700 13.3 91 11.9       8.28 176.12
2012-Jul-28 04:01:14 1010.400 13.1 89 11.3       8.28 176.12
2012-Jul-28 05:01:16 1010.100 11.9 88 10.0       8.28 176.12
2012-Jul-28 06:01:13 1010.000 11.5 85 9.1       8.28 176.12
2012-Jul-28 07:01:13 1010.300 10.9 85 8.4       8.28 176.12
2012-Jul-28 08:01:14 1010.200 11.3 85 8.8       8.28 176.12
2012-Jul-28 09:01:14 1010.300 15.8 74 11.2       8.28 176.12
2012-Jul-28 10:01:15 1010.000 21.6 60 13.5       8.28 176.12
2012-Jul-28 11:01:14 1009.700 25.7 44 12.5       8.28 176.12
2012-Jul-28 12:01:14 1009.600 25.1 42 11.3       8.28 176.12
2012-Jul-28 13:01:14 1009.500 26.8 46 14.2       8.28 176.12
2012-Jul-28 14:01:13 1009.200 30.8 28 10.1       8.28 176.12
2012-Jul-28 15:01:14 1008.800 31.4 25 8.8       8.28 176.12
2012-Jul-28 16:01:16 1008.800 31.3 29 11.1       8.28 176.12
2012-Jul-28 17:01:14 1008.300 32.6 30 12.8         176.12
2012-Jul-28 18:01:13 1008.500 31.6 29 11.3         176.12
2012-Jul-28 19:01:16 1008.400 28.3 35 11.3         176.12
2012-Jul-28 20:01:17 1008.800 28.4 45 15.3         176.12
2012-Jul-28 21:01:14 1009.600 25.3 47 13.2         176.12
2012-Jul-28 22:01:13 1010.400 21.6 59 13.3         176.12
2012-Jul-28 23:01:16 1011.300 18.7 67 12.4         176.12

Temperatura Máxima:32°    Temperatura Mínima:10°
Presión Máxima:1011.300 Hpa    Presión Mínima:1008.300 Hpa


Volver